Time;durP1;ratioP1;P1;durP2;ratioP2;P2;SDS_P1;SDS_P2;PMS_P1;PMS_P2;Temp;Humidity;BMP_temperature;BMP_pressure;BME280_temperature;BME280_humidity;BME280_pressure;Samples;Min_cycle;Max_cycle;Signal;HPM_P1;HPM_P2
2022/08/30 00:03:00;;;;;;;8.07;2.22;;;24.80;73.50;;;;;;6096866;23;20026;-67
2022/08/30 00:05:27;;;;;;;6.20;2.30;;;24.80;73.50;;;;;;6098320;23;20493;-67
2022/08/30 00:07:53;;;;;;;6.20;2.45;;;24.70;73.60;;;;;;6098595;23;20006;-67
2022/08/30 00:10:19;;;;;;;10.18;2.67;;;24.70;73.80;;;;;;6098708;23;20002;-67
2022/08/30 00:12:45;;;;;;;6.85;2.38;;;24.70;74.00;;;;;;6099030;23;20078;-67
2022/08/30 00:15:12;;;;;;;6.43;2.38;;;24.60;74.00;;;;;;6099047;23;20037;-67
2022/08/30 00:17:38;;;;;;;4.97;2.50;;;24.60;74.20;;;;;;6098792;23;20074;-67
2022/08/30 00:20:07;;;;;;;10.35;2.60;;;24.60;74.50;;;;;;6098161;23;20430;-67
2022/08/30 00:22:32;;;;;;;4.72;2.40;;;24.60;74.70;;;;;;6098413;23;20115;-68
2022/08/30 00:24:59;;;;;;;4.18;2.40;;;24.60;74.60;;;;;;6098844;23;20047;-67
2022/08/30 00:27:27;;;;;;;7.55;3.10;;;24.60;74.60;;;;;;6098784;23;20002;-67
2022/08/30 00:29:53;;;;;;;4.93;2.75;;;24.60;74.80;;;;;;6098945;23;20014;-67
2022/08/30 00:32:20;;;;;;;7.63;2.58;;;24.50;74.80;;;;;;6098725;23;20029;-67
2022/08/30 00:34:47;;;;;;;10.52;2.63;;;24.50;75.00;;;;;;6098274;23;20072;-67
2022/08/30 00:37:13;;;;;;;7.05;2.70;;;24.50;75.50;;;;;;6098293;23;19998;-66
2022/08/30 00:39:39;;;;;;;6.93;2.55;;;24.50;75.90;;;;;;6098748;23;20034;-66
2022/08/30 00:42:06;;;;;;;6.97;2.30;;;24.50;75.80;;;;;;6098495;23;20006;-67
2022/08/30 00:44:32;;;;;;;4.18;2.20;;;24.40;75.20;;;;;;6098440;23;20017;-67
2022/08/30 00:46:58;;;;;;;5.20;2.45;;;24.40;75.00;;;;;;6098489;23;20030;-67
2022/08/30 00:49:24;;;;;;;7.45;2.70;;;24.40;74.80;;;;;;6098149;23;20333;-68
2022/08/30 00:51:51;;;;;;;8.02;2.20;;;24.40;74.70;;;;;;6098456;23;20041;-67
2022/08/30 00:54:17;;;;;;;12.45;2.50;;;24.40;74.50;;;;;;6098313;23;20018;-67
2022/08/30 00:56:44;;;;;;;7.28;2.30;;;24.30;74.40;;;;;;6098182;23;20002;-67
2022/08/30 00:59:10;;;;;;;5.30;2.17;;;24.30;74.40;;;;;;6098310;23;20026;-67
2022/08/30 01:01:36;;;;;;;6.82;2.40;;;24.40;74.60;;;;;;6098330;23;20307;-67
2022/08/30 01:04:03;;;;;;;6.97;2.25;;;24.30;74.50;;;;;;6098249;23;20010;-67
2022/08/30 01:06:29;;;;;;;3.38;2.20;;;24.30;74.40;;;;;;6098182;23;20017;-67
2022/08/30 01:08:55;;;;;;;9.65;2.45;;;24.30;74.20;;;;;;6098410;23;20010;-67
2022/08/30 01:11:24;;;;;;;6.10;2.10;;;24.30;74.00;;;;;;6098256;23;20031;-67
2022/08/30 01:13:52;;;;;;;7.82;2.22;;;24.30;73.90;;;;;;6098018;23;20142;-67
2022/08/30 01:16:19;;;;;;;6.82;2.20;;;24.20;73.80;;;;;;6097562;23;20009;-67
2022/08/30 01:18:46;;;;;;;4.75;1.95;;;24.30;73.80;;;;;;6098112;23;20441;-67
2022/08/30 01:21:33;;;;;;;7.38;2.42;;;24.20;73.70;;;;;;6098367;23;20077;-67
2022/08/30 01:24:00;;;;;;;4.78;1.92;;;24.20;73.70;;;;;;6097640;23;20472;-67
2022/08/30 01:26:28;;;;;;;5.30;2.45;;;24.20;73.40;;;;;;6097869;23;19998;-67
2022/08/30 01:28:58;;;;;;;6.05;1.95;;;24.20;73.20;;;;;;6097813;23;20437;-67
2022/08/30 01:31:24;;;;;;;6.03;2.45;;;24.20;73.70;;;;;;6097860;23;20005;-67
2022/08/30 01:33:50;;;;;;;7.60;2.15;;;24.20;72.90;;;;;;6097640;23;20003;-66
2022/08/30 01:36:18;;;;;;;7.18;1.98;;;24.20;73.00;;;;;;6098046;23;20330;-67
2022/08/30 01:38:50;;;;;;;8.25;2.00;;;24.20;73.10;;;;;;6097934;23;20013;-68
2022/08/30 01:41:19;;;;;;;8.73;2.33;;;24.10;73.50;;;;;;6098233;23;20010;-67
2022/08/30 01:43:45;;;;;;;7.95;2.47;;;24.10;73.80;;;;;;6097692;23;20033;-67
2022/08/30 01:46:12;;;;;;;5.78;2.22;;;24.10;74.10;;;;;;6097779;23;20002;-67
2022/08/30 01:48:41;;;;;;;9.95;2.30;;;24.00;74.60;;;;;;6097657;23;20434;-67
2022/08/30 01:51:10;;;;;;;7.43;2.50;;;24.00;75.10;;;;;;6097623;23;20061;-67
2022/08/30 01:53:37;;;;;;;2.42;2.10;;;24.00;75.20;;;;;;6098116;23;20002;-67
2022/08/30 01:56:04;;;;;;;6.63;2.53;;;23.90;74.80;;;;;;6097626;23;20074;-67
2022/08/30 01:58:30;;;;;;;8.38;2.17;;;23.90;75.00;;;;;;6097409;23;20307;-67
2022/08/30 02:00:56;;;;;;;3.85;2.10;;;23.90;74.80;;;;;;6097518;23;20430;-67
2022/08/30 02:03:22;;;;;;;7.00;2.50;;;23.90;74.90;;;;;;6097393;23;20018;-67
2022/08/30 02:05:48;;;;;;;8.10;2.30;;;23.90;74.90;;;;;;6097303;23;20070;-67
2022/08/30 02:08:14;;;;;;;6.28;2.20;;;23.80;74.90;;;;;;6097348;23;20015;-67
2022/08/30 02:10:39;;;;;;;8.10;2.42;;;23.80;75.00;;;;;;6097370;23;19999;-67
2022/08/30 02:13:05;;;;;;;3.42;2.10;;;23.80;75.00;;;;;;6097418;23;20018;-67
2022/08/30 02:15:31;;;;;;;4.93;2.53;;;23.80;75.00;;;;;;6097794;23;20002;-67
2022/08/30 02:17:57;;;;;;;4.65;2.22;;;23.80;75.00;;;;;;6097278;23;20022;-67
2022/08/30 02:20:22;;;;;;;5.20;2.42;;;23.80;75.00;;;;;;6097525;23;20448;-67
2022/08/30 02:22:48;;;;;;;6.18;2.30;;;23.80;75.00;;;;;;6097264;23;20006;-67
2022/08/30 02:25:14;;;;;;;5.55;2.33;;;23.80;74.80;;;;;;6097401;23;20018;-67
2022/08/30 02:27:39;;;;;;;2.78;2.10;;;23.80;74.80;;;;;;6096954;23;20077;-67
2022/08/30 02:30:07;;;;;;;4.35;2.28;;;23.80;74.60;;;;;;6097282;23;20504;-67
2022/08/30 02:32:33;;;;;;;3.95;1.90;;;23.80;74.60;;;;;;6097315;23;20460;-67
2022/08/30 02:34:59;;;;;;;5.32;2.78;;;23.80;74.70;;;;;;6097348;23;20078;-67
2022/08/30 02:37:25;;;;;;;3.58;2.25;;;23.80;74.60;;;;;;6097407;23;20006;-67
2022/08/30 02:39:50;;;;;;;9.65;2.33;;;23.80;74.70;;;;;;6097482;23;20006;-67
2022/08/30 02:42:16;;;;;;;4.85;2.17;;;23.80;74.70;;;;;;6097273;23;20034;-67
2022/08/30 02:44:42;;;;;;;7.20;2.65;;;23.80;74.60;;;;;;6097192;23;20345;-67
2022/08/30 02:47:07;;;;;;;7.03;2.90;;;23.70;74.80;;;;;;6096865;23;20006;-67
2022/08/30 02:49:33;;;;;;;5.00;2.35;;;23.70;75.10;;;;;;6097261;23;20002;-67
2022/08/30 02:51:59;;;;;;;3.55;2.55;;;23.70;75.20;;;;;;6097425;23;20369;-67
2022/08/30 02:54:25;;;;;;;3.50;2.20;;;23.70;75.20;;;;;;6097307;23;20057;-67
2022/08/30 02:56:50;;;;;;;3.45;2.20;;;23.70;75.40;;;;;;6096647;23;20065;-67
2022/08/30 02:59:17;;;;;;;8.60;2.63;;;23.60;75.40;;;;;;6097058;23;20109;-67
2022/08/30 03:01:43;;;;;;;3.85;2.22;;;23.60;75.50;;;;;;6097272;23;20040;-67
2022/08/30 03:04:09;;;;;;;10.45;2.92;;;23.60;75.90;;;;;;6097081;23;20441;-68
2022/08/30 03:06:36;;;;;;;5.55;2.45;;;23.50;76.00;;;;;;6097225;23;20005;-67
2022/08/30 03:09:01;;;;;;;5.20;2.58;;;23.50;76.30;;;;;;6096857;23;20058;-67
2022/08/30 03:11:27;;;;;;;7.82;2.50;;;23.50;76.60;;;;;;6097107;23;20426;-67
2022/08/30 03:13:53;;;;;;;6.35;2.50;;;23.50;76.90;;;;;;6097099;23;20002;-67
2022/08/30 03:16:20;;;;;;;5.25;2.30;;;23.50;77.00;;;;;;6097095;23;20062;-66
2022/08/30 03:18:46;;;;;;;3.58;2.67;;;23.40;77.20;;;;;;6097495;23;20017;-67
2022/08/30 03:21:13;;;;;;;5.28;2.45;;;23.40;77.90;;;;;;6097066;23;20002;-67
2022/08/30 03:23:40;;;;;;;4.40;2.38;;;23.40;77.30;;;;;;6097121;23;20010;-67
2022/08/30 03:26:11;;;;;;;2.88;2.40;;;23.40;77.20;;;;;;6096885;23;20034;-67
2022/08/30 03:28:37;;;;;;;8.27;2.30;;;23.40;77.30;;;;;;6097318;23;20002;-67
2022/08/30 03:31:03;;;;;;;5.15;2.40;;;23.40;77.10;;;;;;6097259;23;20016;-67
2022/08/30 03:33:29;;;;;;;2.85;2.10;;;23.30;77.00;;;;;;6097057;23;20006;-67
2022/08/30 03:35:54;;;;;;;4.28;2.50;;;23.30;76.90;;;;;;6096953;23;20025;-67
2022/08/30 03:38:20;;;;;;;7.03;2.55;;;23.30;76.70;;;;;;6097004;23;20077;-67
2022/08/30 03:40:47;;;;;;;7.43;2.50;;;23.30;76.70;;;;;;6098838;23;19998;-67
2022/08/30 03:43:12;;;;;;;6.78;3.08;;;23.30;76.70;;;;;;6099117;23;20026;-67
2022/08/30 03:45:38;;;;;;;7.22;2.20;;;23.30;76.80;;;;;;6098810;23;20006;-67
2022/08/30 03:48:04;;;;;;;7.57;2.50;;;23.30;76.90;;;;;;6098821;23;20062;-67
2022/08/30 03:50:31;;;;;;;3.50;2.15;;;23.30;77.10;;;;;;6098865;23;20006;-67
2022/08/30 03:53:00;;;;;;;3.50;2.33;;;23.30;77.10;;;;;;6098732;23;20011;-67
2022/08/30 03:55:27;;;;;;;3.97;2.50;;;23.20;77.00;;;;;;6098785;23;20002;-67
2022/08/30 03:57:53;;;;;;;7.88;2.50;;;23.20;76.90;;;;;;6099128;23;20081;-67
2022/08/30 04:00:19;;;;;;;5.10;2.70;;;23.20;77.10;;;;;;6098586;23;20521;-67
2022/08/30 04:02:45;;;;;;;8.98;2.97;;;23.20;77.30;;;;;;6098901;23;20073;-67
2022/08/30 04:05:11;;;;;;;5.20;2.50;;;23.20;77.50;;;;;;6098751;23;20049;-67
2022/08/30 04:07:37;;;;;;;5.38;2.55;;;23.20;77.80;;;;;;6098858;23;20053;-67
2022/08/30 04:10:08;;;;;;;5.93;2.88;;;23.10;77.90;;;;;;6098706;23;20073;-67
2022/08/30 04:12:34;;;;;;;5.80;2.60;;;23.10;78.00;;;;;;6098618;23;20060;-67
2022/08/30 04:15:00;;;;;;;9.52;2.85;;;23.10;78.10;;;;;;6098967;23;20007;-67
2022/08/30 04:17:26;;;;;;;5.03;2.40;;;23.10;78.10;;;;;;6098491;23;20150;-68
2022/08/30 04:19:52;;;;;;;6.68;2.67;;;23.00;78.10;;;;;;6098557;23;20081;-67
2022/08/30 04:22:18;;;;;;;3.63;2.40;;;23.00;78.00;;;;;;6098696;23;20038;-67
2022/08/30 04:24:43;;;;;;;4.30;2.33;;;23.00;78.00;;;;;;6098581;23;20054;-67
2022/08/30 04:27:09;;;;;;;4.10;2.28;;;23.00;78.10;;;;;;6098726;23;20054;-67
2022/08/30 04:29:35;;;;;;;8.00;2.70;;;23.00;78.40;;;;;;6098469;23;20030;-67
2022/08/30 04:32:01;;;;;;;8.18;2.80;;;23.00;78.20;;;;;;6098468;23;20006;-67
2022/08/30 04:34:27;;;;;;;9.43;2.40;;;23.00;78.10;;;;;;6098658;23;20020;-67
2022/08/30 04:36:53;;;;;;;6.25;2.60;;;23.00;77.90;;;;;;6098559;23;20025;-67
2022/08/30 04:39:19;;;;;;;7.20;2.80;;;22.90;77.70;;;;;;6098233;23;20006;-67
2022/08/30 04:41:44;;;;;;;5.10;2.28;;;22.90;77.70;;;;;;6098657;23;20010;-67
2022/08/30 04:44:10;;;;;;;9.38;3.30;;;22.90;77.70;;;;;;6098607;23;20345;-68
2022/08/30 04:46:36;;;;;;;10.60;2.83;;;22.90;77.60;;;;;;6098225;23;20003;-67
2022/08/30 04:49:03;;;;;;;4.65;2.88;;;22.90;77.50;;;;;;6098594;23;20006;-67
2022/08/30 04:51:29;;;;;;;11.30;2.53;;;22.90;77.70;;;;;;6097978;23;20081;-67
2022/08/30 04:53:55;;;;;;;6.15;3.20;;;22.90;77.80;;;;;;6098436;23;20049;-67
2022/08/30 04:56:23;;;;;;;6.45;2.67;;;22.80;77.70;;;;;;6098321;23;20057;-67
2022/08/30 04:58:50;;;;;;;7.53;2.70;;;22.80;77.80;;;;;;6098239;23;20382;-67
2022/08/30 05:01:23;;;;;;;4.28;3.05;;;22.80;77.90;;;;;;6098297;23;20033;-66
2022/08/30 05:03:49;;;;;;;15.43;3.50;;;22.80;78.00;;;;;;6098332;23;20018;-67
2022/08/30 05:06:16;;;;;;;10.18;3.60;;;22.80;78.20;;;;;;6098326;23;20002;-67
2022/08/30 05:08:41;;;;;;;8.85;3.45;;;22.80;78.40;;;;;;6098319;23;20341;-67
2022/08/30 05:11:08;;;;;;;5.43;3.42;;;22.80;78.60;;;;;;6098136;23;20002;-67
2022/08/30 05:13:35;;;;;;;5.68;2.85;;;22.80;78.70;;;;;;6098082;23;20070;-67
2022/08/30 05:16:03;;;;;;;8.63;3.55;;;22.80;78.70;;;;;;6098474;23;20085;-67
2022/08/30 05:18:29;;;;;;;10.13;3.15;;;22.80;78.70;;;;;;6097979;23;20133;-67
2022/08/30 05:21:07;;;;;;;13.23;3.47;;;22.80;78.70;;;;;;6098153;23;20014;-67
2022/08/30 05:23:33;;;;;;;14.02;3.15;;;22.80;79.00;;;;;;6097526;23;20029;-66
2022/08/30 05:26:07;;;;;;;8.45;2.95;;;22.80;79.10;;;;;;6098075;23;19999;-67
2022/08/30 05:28:34;;;;;;;6.95;3.25;;;22.90;79.10;;;;;;6098004;23;20002;-67
2022/08/30 05:31:01;;;;;;;6.25;2.83;;;22.90;79.10;;;;;;6097899;23;19998;-67
2022/08/30 05:33:27;;;;;;;14.95;2.92;;;22.90;78.90;;;;;;6097857;23;20422;-67
2022/08/30 05:35:53;;;;;;;10.82;3.30;;;22.90;78.90;;;;;;6097967;23;20026;-67
2022/08/30 05:38:19;;;;;;;5.88;3.08;;;22.90;79.00;;;;;;6097877;23;20002;-67
2022/08/30 05:40:45;;;;;;;5.40;2.50;;;23.00;79.00;;;;;;6097986;23;20054;-66
2022/08/30 05:43:12;;;;;;;5.50;2.92;;;23.00;78.90;;;;;;6097800;23;20410;-67
2022/08/30 05:45:39;;;;;;;10.38;2.78;;;23.00;78.80;;;;;;6097498;23;20014;-67
2022/08/30 05:48:05;;;;;;;9.50;2.50;;;23.10;78.80;;;;;;6097792;23;20005;-67
2022/08/30 05:50:31;;;;;;;7.38;2.70;;;23.10;78.50;;;;;;6098033;23;20007;-67
2022/08/30 05:52:56;;;;;;;5.68;2.83;;;23.10;78.30;;;;;;6097508;23;20081;-67
2022/08/30 05:55:22;;;;;;;8.38;2.80;;;23.10;78.10;;;;;;6097372;23;20058;-67
2022/08/30 05:57:48;;;;;;;6.47;2.50;;;23.10;77.80;;;;;;6097591;23;20081;-66
2022/08/30 06:00:16;;;;;;;5.75;2.40;;;23.20;77.60;;;;;;6097377;23;20454;-67
2022/08/30 06:02:43;;;;;;;8.25;2.47;;;23.20;77.40;;;;;;6097263;23;20034;-66
2022/08/30 06:05:10;;;;;;;7.88;2.40;;;23.20;77.40;;;;;;6097888;23;20439;-66
2022/08/30 06:07:36;;;;;;;8.70;2.47;;;23.30;77.40;;;;;;6097653;23;20033;-67
2022/08/30 06:10:03;;;;;;;4.18;2.20;;;23.40;77.40;;;;;;6097738;23;20007;-66
2022/08/30 06:12:29;;;;;;;5.72;2.45;;;23.30;77.20;;;;;;6097532;23;20034;-66
2022/08/30 06:14:55;;;;;;;8.55;2.38;;;23.40;77.20;;;;;;6097340;23;20425;-67
2022/08/30 06:17:20;;;;;;;6.18;2.63;;;23.50;76.70;;;;;;6097500;23;20064;-66
2022/08/30 06:19:46;;;;;;;5.65;2.10;;;23.50;76.50;;;;;;6097269;23;20434;-66
2022/08/30 06:22:12;;;;;;;4.95;2.33;;;23.50;76.50;;;;;;6097470;23;20017;-67
2022/08/30 06:24:38;;;;;;;4.47;2.63;;;23.50;76.30;;;;;;6097474;23;20014;-66
2022/08/30 06:27:04;;;;;;;6.70;2.10;;;23.60;76.10;;;;;;6097623;23;20007;-67
2022/08/30 06:29:30;;;;;;;6.75;2.10;;;23.60;75.50;;;;;;6097229;23;20345;-67
2022/08/30 06:31:57;;;;;;;8.50;2.20;;;23.70;75.40;;;;;;6097603;23;20045;-67
2022/08/30 06:34:22;;;;;;;5.43;2.47;;;23.70;75.50;;;;;;6097534;23;20015;-67
2022/08/30 06:36:48;;;;;;;6.40;2.95;;;23.80;75.40;;;;;;6097106;23;20006;-67
2022/08/30 06:39:14;;;;;;;6.07;2.17;;;23.80;75.30;;;;;;6097559;23;20011;-67
2022/08/30 06:41:40;;;;;;;4.05;2.20;;;23.90;75.00;;;;;;6097376;23;20008;-66
2022/08/30 06:44:06;;;;;;;8.38;2.17;;;23.90;74.60;;;;;;6096886;23;20014;-67
2022/08/30 06:46:35;;;;;;;3.72;2.20;;;23.90;74.40;;;;;;6097659;23;20010;-67
2022/08/30 06:49:01;;;;;;;3.88;1.70;;;24.00;74.30;;;;;;6097328;23;20013;-66
2022/08/30 06:51:34;;;;;;;5.07;2.20;;;24.10;74.00;;;;;;6097036;23;20002;-66
2022/08/30 06:54:02;;;;;;;6.57;2.10;;;24.10;73.40;;;;;;6096995;23;20009;-66
2022/08/30 06:56:27;;;;;;;6.70;2.80;;;24.20;73.00;;;;;;6097152;23;20010;-67
2022/08/30 06:58:53;;;;;;;5.15;2.05;;;24.20;73.10;;;;;;6097164;23;20069;-67
2022/08/30 07:01:22;;;;;;;4.88;2.00;;;24.30;73.30;;;;;;6097018;23;20008;-66
2022/08/30 07:03:48;;;;;;;2.92;2.03;;;24.40;73.00;;;;;;6097358;23;20022;-66
2022/08/30 07:06:14;;;;;;;4.50;1.85;;;24.40;72.70;;;;;;6097062;23;20434;-66
2022/08/30 07:08:40;;;;;;;5.40;1.90;;;24.50;72.20;;;;;;6097133;23;20013;-66
2022/08/30 07:11:07;;;;;;;6.20;2.42;;;24.50;71.50;;;;;;6096863;23;20038;-66
2022/08/30 07:13:34;;;;;;;7.30;2.22;;;24.60;71.50;;;;;;6097193;23;20438;-66
2022/08/30 07:16:00;;;;;;;2.28;1.63;;;24.70;71.70;;;;;;6097091;23;20017;-67
2022/08/30 07:21:15;;;;;;;2.83;2.00;;;24.80;70.90;;;;;;6096887;23;20049;-66
2022/08/30 07:23:42;;;;;;;4.28;1.90;;;24.80;70.60;;;;;;6096816;23;20062;-66
2022/08/30 07:26:10;;;;;;;8.95;1.95;;;24.90;70.30;;;;;;6096882;23;20005;-67
2022/08/30 07:28:37;;;;;;;3.60;2.00;;;25.00;70.10;;;;;;6097139;23;20061;-67
2022/08/30 07:31:04;;;;;;;5.43;2.10;;;25.00;70.00;;;;;;6096757;23;20002;-66
2022/08/30 07:33:30;;;;;;;2.67;1.80;;;25.10;70.30;;;;;;6097201;23;20006;-66
2022/08/30 07:35:57;;;;;;;10.73;1.98;;;25.10;70.00;;;;;;6096938;23;20003;-66
2022/08/30 07:38:23;;;;;;;11.73;2.10;;;25.20;69.70;;;;;;6096942;23;20014;-66
2022/08/30 07:40:49;;;;;;;3.80;2.13;;;25.30;69.50;;;;;;6096956;23;20010;-67
2022/08/30 07:43:14;;;;;;;5.32;1.83;;;25.40;69.60;;;;;;6097149;23;20022;-66
2022/08/30 07:45:40;;;;;;;1.90;1.80;;;25.50;69.70;;;;;;6097376;23;20077;-67
2022/08/30 07:48:06;;;;;;;5.22;2.10;;;25.50;69.40;;;;;;6097147;23;20018;-67
2022/08/30 07:50:32;;;;;;;3.50;1.90;;;25.60;69.40;;;;;;6096654;23;20021;-67
2022/08/30 07:52:58;;;;;;;4.47;1.92;;;25.60;68.70;;;;;;6097182;23;20033;-67
2022/08/30 07:55:24;;;;;;;2.45;2.05;;;25.60;68.70;;;;;;6096905;23;20418;-66
2022/08/30 07:57:49;;;;;;;5.75;2.30;;;25.70;68.30;;;;;;6096873;23;20026;-66
2022/08/30 08:00:15;;;;;;;4.88;1.90;;;25.70;68.60;;;;;;6096901;23;20018;-67
2022/08/30 08:02:41;;;;;;;4.15;2.22;;;25.70;68.40;;;;;;6096748;23;20330;-67
2022/08/30 08:05:09;;;;;;;6.00;2.13;;;25.70;68.20;;;;;;6096839;23;20054;-67
2022/08/30 08:07:35;;;;;;;4.85;2.20;;;25.80;68.70;;;;;;6097072;23;20018;-67
2022/08/30 08:10:02;;;;;;;2.35;1.80;;;25.90;68.60;;;;;;6097040;23;20010;-67
2022/08/30 08:12:28;;;;;;;3.67;1.92;;;25.90;68.20;;;;;;6096967;23;20019;-67
2022/08/30 08:14:53;;;;;;;2.10;1.80;;;25.90;68.20;;;;;;6096859;23;20437;-67
2022/08/30 08:17:19;;;;;;;4.25;1.90;;;26.00;68.40;;;;;;6097192;23;20007;-67
2022/08/30 08:19:44;;;;;;;7.80;2.22;;;26.10;68.30;;;;;;6096780;23;20073;-66
2022/08/30 08:22:10;;;;;;;2.90;1.92;;;26.10;67.80;;;;;;6096966;23;20422;-67
2022/08/30 08:24:36;;;;;;;3.72;1.85;;;26.20;67.60;;;;;;6096624;23;20018;-67
2022/08/30 08:27:02;;;;;;;6.82;1.77;;;26.30;67.80;;;;;;6098563;23;19999;-67
2022/08/30 08:29:28;;;;;;;3.47;2.10;;;26.30;67.00;;;;;;6098461;23;20307;-67
2022/08/30 08:31:54;;;;;;;5.47;1.75;;;26.30;67.00;;;;;;6098504;23;20030;-66
2022/08/30 08:34:22;;;;;;;2.78;2.17;;;26.30;66.60;;;;;;6098475;23;20021;-67
2022/08/30 08:36:49;;;;;;;7.72;2.00;;;26.40;66.70;;;;;;6098403;23;20497;-66
2022/08/30 08:39:15;;;;;;;4.35;2.03;;;26.40;66.70;;;;;;6098403;23;20014;-67
2022/08/30 08:41:48;;;;;;;4.43;1.75;;;26.40;66.50;;;;;;6098542;23;20447;-67
2022/08/30 08:44:39;;;;;;;7.50;2.75;;;26.40;66.10;;;;;;6098198;23;20065;-66
2022/08/30 08:47:23;;;;;;;2.95;1.80;;;26.50;65.80;;;;;;6098566;23;20002;-67
2022/08/30 08:49:52;;;;;;;2.78;1.90;;;26.50;65.60;;;;;;6098630;23;20010;-67
2022/08/30 08:55:17;;;;;;;2.13;1.73;;;26.50;65.70;;;;;;6098109;23;20017;-67
2022/08/30 08:57:44;;;;;;;5.93;1.73;;;26.50;64.80;;;;;;6098293;23;20489;-66
2022/08/30 09:00:12;;;;;;;3.92;1.77;;;26.50;64.20;;;;;;6098086;23;20029;-66
2022/08/30 09:02:46;;;;;;;2.78;1.60;;;26.50;64.10;;;;;;6098067;23;20002;-67
2022/08/30 09:05:17;;;;;;;6.13;1.77;;;26.50;64.50;;;;;;6097775;23;20021;-67
2022/08/30 09:07:47;;;;;;;3.83;1.85;;;26.50;64.80;;;;;;6098305;23;20010;-66
2022/08/30 09:10:13;;;;;;;3.97;2.00;;;26.70;65.00;;;;;;6098091;23;20430;-67
2022/08/30 09:12:39;;;;;;;2.25;1.50;;;26.80;62.90;;;;;;6098118;23;20006;-67
2022/08/30 09:15:17;;;;;;;4.10;1.90;;;26.90;63.10;;;;;;6097804;23;20011;-66
2022/08/30 09:17:49;;;;;;;3.10;1.67;;;27.00;63.40;;;;;;6098140;23;20010;-66
2022/08/30 09:20:37;;;;;;;1.85;1.58;;;27.10;62.40;;;;;;6098120;23;20011;-67
2022/08/30 09:23:14;;;;;;;12.15;1.80;;;27.20;62.20;;;;;;6097636;23;20066;-67
2022/08/30 09:25:58;;;;;;;5.03;1.80;;;27.30;61.50;;;;;;6097820;23;20021;-67
2022/08/30 09:28:32;;;;;;;4.75;1.70;;;27.50;61.20;;;;;;6098028;23;20066;-67
2022/08/30 09:31:00;;;;;;;4.00;1.70;;;27.60;61.10;;;;;;6098144;23;20469;-67
2022/08/30 09:33:25;;;;;;;3.42;1.40;;;27.60;60.30;;;;;;6098124;23;20006;-67
2022/08/30 09:35:51;;;;;;;2.10;1.40;;;27.80;59.10;;;;;;6098069;23;20010;-67
2022/08/30 09:38:29;;;;;;;5.00;1.40;;;27.90;58.00;;;;;;6097320;23;20441;-67
2022/08/30 09:40:57;;;;;;;3.90;1.40;;;28.00;56.70;;;;;;6097724;23;19998;-67
2022/08/30 09:43:27;;;;;;;2.35;1.20;;;28.00;55.10;;;;;;6097828;23;20442;-67
2022/08/30 09:45:59;;;;;;;2.80;1.33;;;28.10;54.90;;;;;;6072397;23;20407;-67
2022/08/30 09:48:42;;;;;;;;;;;28.20;54.40;;;;;;6098253;23;20318;-67
2022/08/30 09:51:14;;;;;;;2.75;1.30;;;28.30;54.70;;;;;;6097931;23;19956;-67
2022/08/30 09:53:42;;;;;;;1.52;1.40;;;28.40;55.00;;;;;;6097368;23;20002;-67
2022/08/30 09:56:28;;;;;;;1.38;1.15;;;28.40;54.40;;;;;;6097906;23;20009;-67
2022/08/30 09:59:12;;;;;;;3.55;1.48;;;28.50;55.20;;;;;;6082328;23;20054;-67
2022/08/30 10:01:55;;;;;;;2.05;1.40;;;28.50;55.30;;;;;;6097774;23;20011;-68
2022/08/30 10:04:56;;;;;;;2.13;1.30;;;28.60;55.20;;;;;;6097554;23;20014;-67
2022/08/30 10:07:33;;;;;;;2.67;1.58;;;28.70;54.50;;;;;;6082488;23;20006;-67
2022/08/30 10:10:05;;;;;;;2.28;1.40;;;28.80;53.40;;;;;;6097525;23;20010;-67
2022/08/30 10:12:45;;;;;;;3.55;1.50;;;28.90;53.80;;;;;;6097333;23;20122;-65
2022/08/30 10:15:16;;;;;;;4.07;1.40;;;29.00;53.70;;;;;;6097455;23;19999;-67
2022/08/30 10:18:03;;;;;;;1.88;1.40;;;29.00;52.90;;;;;;6097602;23;20333;-69
2022/08/30 10:20:50;;;;;;;4.03;1.60;;;29.10;53.00;;;;;;6097435;23;20006;-67
2022/08/30 10:23:31;;;;;;;4.03;1.48;;;29.20;53.50;;;;;;6097267;23;20422;-67
2022/08/30 10:26:27;;;;;;;2.97;1.60;;;29.30;52.70;;;;;;6097252;23;20003;-67
2022/08/30 10:29:07;;;;;;;2.33;1.63;;;29.40;52.90;;;;;;6090219;23;20021;-67
2022/08/30 10:31:52;;;;;;;7.45;1.50;;;29.50;52.70;;;;;;6097435;23;20030;-67
2022/08/30 10:34:25;;;;;;;5.25;1.58;;;29.60;51.90;;;;;;6097690;23;20034;-67
2022/08/30 10:37:10;;;;;;;2.50;1.40;;;29.50;52.10;;;;;;6097287;23;20433;-66
2022/08/30 10:39:48;;;;;;;2.78;1.50;;;29.50;52.60;;;;;;6097294;23;20010;-67
2022/08/30 10:42:21;;;;;;;2.08;1.38;;;29.50;52.50;;;;;;6097464;23;20369;-67
2022/08/30 10:45:03;;;;;;;1.60;1.40;;;29.60;52.20;;;;;;6097230;23;20501;-66
2022/08/30 10:47:31;;;;;;;2.95;1.25;;;29.80;52.20;;;;;;6096982;23;20006;-67
2022/08/30 10:50:23;;;;;;;2.08;1.58;;;29.80;50.70;;;;;;6097019;23;20010;-67
2022/08/30 10:53:18;;;;;;;3.35;1.30;;;29.90;51.40;;;;;;6097069;23;20002;-67
2022/08/30 10:55:50;;;;;;;2.92;1.23;;;29.90;51.90;;;;;;6097171;23;20006;-67
2022/08/30 10:58:17;;;;;;;2.83;1.58;;;30.00;51.80;;;;;;6097348;23;20017;-67
2022/08/30 11:01:13;;;;;;;2.15;1.50;;;30.10;51.30;;;;;;6097098;23;20050;-67
2022/08/30 11:04:16;;;;;;;2.45;1.40;;;30.20;50.20;;;;;;6096819;23;20046;-66
2022/08/30 11:07:17;;;;;;;6.30;1.52;;;30.20;51.00;;;;;;6097339;23;20014;-67
2022/08/30 11:10:03;;;;;;;2.53;1.50;;;30.30;51.50;;;;;;6008995;23;20011;-67
2022/08/30 11:12:57;;;;;;;2.75;1.50;;;30.50;51.90;;;;;;6090534;23;20011;-67
2022/08/30 11:15:28;;;;;;;2.00;1.40;;;30.50;51.30;;;;;;6097269;23;20002;-67
2022/08/30 11:18:01;;;;;;;;;;;30.60;51.30;;;;;;6097475;23;20428;-67
2022/08/30 11:21:14;;;;;;;2.50;1.50;;;30.70;51.70;;;;;;6096925;23;19999;-67
2022/08/30 11:23:40;;;;;;;3.15;1.55;;;30.80;51.40;;;;;;6089042;23;20063;-66
2022/08/30 11:26:08;;;;;;;2.75;1.70;;;30.90;50.40;;;;;;6097204;23;20003;-67
2022/08/30 11:28:34;;;;;;;2.20;1.58;;;31.00;50.90;;;;;;6096470;23;20011;-67
2022/08/30 11:31:05;;;;;;;1.70;1.52;;;31.10;49.90;;;;;;6096990;23;20326;-66
2022/08/30 11:33:54;;;;;;;7.80;1.88;;;31.20;50.60;;;;;;6096760;23;20054;-67
2022/08/30 11:36:28;;;;;;;2.63;1.77;;;31.30;51.20;;;;;;6096645;23;20046;-66
2022/08/30 11:38:54;;;;;;;2.38;1.58;;;31.40;51.30;;;;;;6096922;23;20014;-67
2022/08/30 11:42:08;;;;;;;3.80;2.00;;;31.50;51.20;;;;;;6097026;23;20036;-67
2022/08/30 11:44:33;;;;;;;2.97;1.60;;;31.60;50.50;;;;;;6089416;23;20029;-67
2022/08/30 11:47:21;;;;;;;3.58;1.88;;;31.70;51.20;;;;;;6096962;23;20069;-67
2022/08/30 11:50:16;;;;;;;2.80;1.70;;;31.80;50.50;;;;;;6096891;23;20014;-67
2022/08/30 11:53:02;;;;;;;3.65;1.92;;;31.90;50.30;;;;;;6059569;23;20011;-67
2022/08/30 11:56:16;;;;;;;4.68;1.83;;;31.90;49.30;;;;;;6096544;23;20034;-67
2022/08/30 11:58:59;;;;;;;5.03;2.03;;;31.80;48.90;;;;;;6077164;23;20015;-67
2022/08/30 12:01:24;;;;;;;3.88;2.00;;;31.60;49.00;;;;;;6096396;23;20066;-67
2022/08/30 12:04:15;;;;;;;2.72;1.60;;;31.40;49.80;;;;;;6097069;23;20018;-67
2022/08/30 12:06:43;;;;;;;13.60;2.55;;;31.20;50.00;;;;;;6057734;23;20085;-67
2022/08/30 12:09:31;;;;;;;7.13;1.75;;;31.20;50.70;;;;;;6096650;23;20006;-67
2022/08/30 12:12:01;;;;;;;5.00;2.20;;;31.30;50.10;;;;;;6053909;23;20044;-67
2022/08/30 12:14:51;;;;;;;5.88;1.98;;;31.30;50.40;;;;;;6097087;23;20468;-67
2022/08/30 12:20:37;;;;;;;3.85;1.90;;;31.70;51.20;;;;;;6096953;23;20480;-66
2022/08/30 12:23:16;;;;;;;3.10;1.60;;;31.80;49.50;;;;;;6096854;23;19999;-66
2022/08/30 12:25:42;;;;;;;4.75;2.22;;;31.90;49.50;;;;;;6096790;23;20438;-67
2022/08/30 12:28:24;;;;;;;2.50;1.88;;;32.10;49.00;;;;;;6097049;23;20022;-67
2022/08/30 12:30:49;;;;;;;3.15;2.00;;;32.10;49.10;;;;;;6096536;23;20067;-67
2022/08/30 12:33:27;;;;;;;21.10;2.30;;;32.30;49.20;;;;;;6096727;23;20010;-67
2022/08/30 12:35:53;;;;;;;6.07;2.25;;;32.30;49.40;;;;;;6096669;23;20010;-67
2022/08/30 12:38:20;;;;;;;4.18;2.10;;;32.40;49.70;;;;;;6096705;23;20006;-67
2022/08/30 12:40:55;;;;;;;8.05;2.30;;;32.50;48.60;;;;;;6096449;23;19998;-67
2022/08/30 12:43:31;;;;;;;22.92;2.90;;;32.50;48.40;;;;;;6096883;23;20011;-67
2022/08/30 12:46:02;;;;;;;2.72;2.00;;;32.60;48.10;;;;;;6096878;23;20428;-67
2022/08/30 12:48:32;;;;;;;;;;;32.60;47.20;;;;;;6097426;23;20089;-67
2022/08/30 12:51:00;;;;;;;9.48;2.10;;;32.70;47.70;;;;;;6096878;23;19904;-67
2022/08/30 12:53:40;;;;;;;9.77;2.22;;;32.70;46.80;;;;;;6096427;23;20011;-67
2022/08/30 12:56:10;;;;;;;6.50;2.25;;;32.70;47.80;;;;;;6096866;23;20010;-67
2022/08/30 12:58:51;;;;;;;9.53;1.60;;;32.80;48.30;;;;;;6047727;23;1166902;-66
2022/08/30 13:01:35;;;;;;;5.60;1.85;;;32.80;48.30;;;;;;6098699;23;20311;-67
2022/08/30 13:04:20;;;;;;;15.93;2.10;;;32.90;48.20;;;;;;6098325;23;20022;-67
2022/08/30 13:06:57;;;;;;;6.68;2.30;;;32.80;48.60;;;;;;6098226;23;20007;-67
2022/08/30 13:09:38;;;;;;;6.53;2.05;;;32.80;48.50;;;;;;6098115;23;20013;-67
2022/08/30 13:12:19;;;;;;;16.75;2.80;;;32.80;48.50;;;;;;6098254;23;20002;-66
2022/08/30 13:14:45;;;;;;;8.07;2.10;;;32.80;49.80;;;;;;6098598;23;20009;-67